sensor_id;sensor_type;location;lat;lon;timestamp;temperature;humidity
52187;DHT22;38161;53.020;6.598;2024-02-21T00:00:51;9.20;99.90
52187;DHT22;38161;53.020;6.598;2024-02-21T00:03:16;9.10;99.90
52187;DHT22;38161;53.020;6.598;2024-02-21T00:05:43;9.10;99.90
52187;DHT22;38161;53.020;6.598;2024-02-21T00:08:08;9.10;99.90
52187;DHT22;38161;53.020;6.598;2024-02-21T00:10:34;9.10;99.90
52187;DHT22;38161;53.020;6.598;2024-02-21T00:13:00;9.10;99.90
52187;DHT22;38161;53.020;6.598;2024-02-21T00:15:26;9.10;99.90
52187;DHT22;38161;53.020;6.598;2024-02-21T00:17:52;9.10;99.90
52187;DHT22;38161;53.020;6.598;2024-02-21T00:20:19;9.10;99.90
52187;DHT22;38161;53.020;6.598;2024-02-21T00:22:45;9.00;99.90
52187;DHT22;38161;53.020;6.598;2024-02-21T00:25:11;9.10;99.90
52187;DHT22;38161;53.020;6.598;2024-02-21T00:27:37;9.00;99.90
52187;DHT22;38161;53.020;6.598;2024-02-21T00:30:03;9.00;99.90
52187;DHT22;38161;53.020;6.598;2024-02-21T00:32:29;9.00;99.90
52187;DHT22;38161;53.020;6.598;2024-02-21T00:34:55;9.00;99.90
52187;DHT22;38161;53.020;6.598;2024-02-21T00:37:21;9.00;99.90
52187;DHT22;38161;53.020;6.598;2024-02-21T00:39:46;9.00;99.90
52187;DHT22;38161;53.020;6.598;2024-02-21T00:42:12;9.00;99.90
52187;DHT22;38161;53.020;6.598;2024-02-21T00:44:38;9.00;99.90
52187;DHT22;38161;53.020;6.598;2024-02-21T00:47:04;9.00;99.90
52187;DHT22;38161;53.020;6.598;2024-02-21T00:49:29;9.00;99.90
52187;DHT22;38161;53.020;6.598;2024-02-21T00:51:55;9.00;99.90
52187;DHT22;38161;53.020;6.598;2024-02-21T00:54:21;9.00;99.90
52187;DHT22;38161;53.020;6.598;2024-02-21T00:56:48;9.00;99.90
52187;DHT22;38161;53.020;6.598;2024-02-21T00:59:14;9.00;99.90
52187;DHT22;38161;53.020;6.598;2024-02-21T01:01:40;9.00;99.90
52187;DHT22;38161;53.020;6.598;2024-02-21T01:04:11;8.90;99.90
52187;DHT22;38161;53.020;6.598;2024-02-21T01:06:37;8.90;99.90
52187;DHT22;38161;53.020;6.598;2024-02-21T01:09:03;8.90;99.90
52187;DHT22;38161;53.020;6.598;2024-02-21T01:11:29;8.90;99.90
52187;DHT22;38161;53.020;6.598;2024-02-21T01:13:55;8.80;99.90
52187;DHT22;38161;53.020;6.598;2024-02-21T01:16:21;8.90;99.90
52187;DHT22;38161;53.020;6.598;2024-02-21T01:18:47;8.80;99.90
52187;DHT22;38161;53.020;6.598;2024-02-21T01:21:12;8.80;99.90
52187;DHT22;38161;53.020;6.598;2024-02-21T01:23:38;8.80;99.90
52187;DHT22;38161;53.020;6.598;2024-02-21T01:26:04;8.80;99.90
52187;DHT22;38161;53.020;6.598;2024-02-21T01:28:30;8.80;99.90
52187;DHT22;38161;53.020;6.598;2024-02-21T01:30:57;8.80;99.90
52187;DHT22;38161;53.020;6.598;2024-02-21T01:33:23;8.80;99.90
52187;DHT22;38161;53.020;6.598;2024-02-21T01:35:48;8.80;99.90
52187;DHT22;38161;53.020;6.598;2024-02-21T01:38:15;8.80;99.90
52187;DHT22;38161;53.020;6.598;2024-02-21T01:40:41;8.80;99.90
52187;DHT22;38161;53.020;6.598;2024-02-21T01:43:17;8.80;99.90
52187;DHT22;38161;53.020;6.598;2024-02-21T01:45:45;8.70;99.90
52187;DHT22;38161;53.020;6.598;2024-02-21T01:48:12;8.70;99.90
52187;DHT22;38161;53.020;6.598;2024-02-21T01:50:38;8.70;99.90
52187;DHT22;38161;53.020;6.598;2024-02-21T01:53:04;8.70;99.90
52187;DHT22;38161;53.020;6.598;2024-02-21T01:55:31;8.70;99.90
52187;DHT22;38161;53.020;6.598;2024-02-21T01:57:56;8.60;99.90
52187;DHT22;38161;53.020;6.598;2024-02-21T02:00:23;8.60;99.90
52187;DHT22;38161;53.020;6.598;2024-02-21T02:02:49;8.60;99.90
52187;DHT22;38161;53.020;6.598;2024-02-21T02:05:16;8.50;99.90
52187;DHT22;38161;53.020;6.598;2024-02-21T02:07:44;8.50;99.90
52187;DHT22;38161;53.020;6.598;2024-02-21T02:10:09;8.50;99.90
52187;DHT22;38161;53.020;6.598;2024-02-21T02:12:35;8.50;99.90
52187;DHT22;38161;53.020;6.598;2024-02-21T02:15:02;8.50;99.90
52187;DHT22;38161;53.020;6.598;2024-02-21T02:17:32;8.50;99.90
52187;DHT22;38161;53.020;6.598;2024-02-21T02:19:58;8.50;99.90
52187;DHT22;38161;53.020;6.598;2024-02-21T02:22:29;8.50;99.90
52187;DHT22;38161;53.020;6.598;2024-02-21T02:24:57;8.50;99.90
52187;DHT22;38161;53.020;6.598;2024-02-21T02:27:23;8.50;99.90
52187;DHT22;38161;53.020;6.598;2024-02-21T02:29:50;8.50;99.90
52187;DHT22;38161;53.020;6.598;2024-02-21T02:32:16;8.50;99.90
52187;DHT22;38161;53.020;6.598;2024-02-21T02:34:42;8.40;99.90
52187;DHT22;38161;53.020;6.598;2024-02-21T02:37:07;8.50;99.90
52187;DHT22;38161;53.020;6.598;2024-02-21T02:39:33;8.40;99.90
52187;DHT22;38161;53.020;6.598;2024-02-21T02:41:59;8.50;99.90
52187;DHT22;38161;53.020;6.598;2024-02-21T02:44:25;8.50;99.90
52187;DHT22;38161;53.020;6.598;2024-02-21T02:46:51;8.50;99.90
52187;DHT22;38161;53.020;6.598;2024-02-21T02:49:16;8.40;99.90
52187;DHT22;38161;53.020;6.598;2024-02-21T02:51:43;8.40;99.90
52187;DHT22;38161;53.020;6.598;2024-02-21T02:54:12;8.40;99.90
52187;DHT22;38161;53.020;6.598;2024-02-21T02:56:37;8.40;99.90
52187;DHT22;38161;53.020;6.598;2024-02-21T02:59:03;8.40;99.90
52187;DHT22;38161;53.020;6.598;2024-02-21T03:01:29;8.40;99.90
52187;DHT22;38161;53.020;6.598;2024-02-21T03:03:58;8.40;99.90
52187;DHT22;38161;53.020;6.598;2024-02-21T03:06:24;8.40;99.90
52187;DHT22;38161;53.020;6.598;2024-02-21T03:08:50;8.40;99.90
52187;DHT22;38161;53.020;6.598;2024-02-21T03:11:20;8.40;99.90
52187;DHT22;38161;53.020;6.598;2024-02-21T03:13:46;8.40;99.90
52187;DHT22;38161;53.020;6.598;2024-02-21T03:16:12;8.40;99.90
52187;DHT22;38161;53.020;6.598;2024-02-21T03:18:38;8.40;99.90
52187;DHT22;38161;53.020;6.598;2024-02-21T03:21:04;8.40;99.90
52187;DHT22;38161;53.020;6.598;2024-02-21T03:23:30;8.40;99.90
52187;DHT22;38161;53.020;6.598;2024-02-21T03:25:56;8.40;99.90
52187;DHT22;38161;53.020;6.598;2024-02-21T03:28:22;8.40;99.90
52187;DHT22;38161;53.020;6.598;2024-02-21T03:30:48;8.40;99.90
52187;DHT22;38161;53.020;6.598;2024-02-21T03:33:14;8.40;99.90
52187;DHT22;38161;53.020;6.598;2024-02-21T03:35:39;8.40;99.90
52187;DHT22;38161;53.020;6.598;2024-02-21T03:38:05;8.40;99.90
52187;DHT22;38161;53.020;6.598;2024-02-21T03:40:31;8.40;99.90
52187;DHT22;38161;53.020;6.598;2024-02-21T03:42:57;8.40;99.90
52187;DHT22;38161;53.020;6.598;2024-02-21T03:45:23;8.40;99.90
52187;DHT22;38161;53.020;6.598;2024-02-21T03:47:48;8.40;99.90
52187;DHT22;38161;53.020;6.598;2024-02-21T03:50:14;8.40;99.90
52187;DHT22;38161;53.020;6.598;2024-02-21T03:52:40;8.40;99.90
52187;DHT22;38161;53.020;6.598;2024-02-21T03:55:06;8.40;99.90
52187;DHT22;38161;53.020;6.598;2024-02-21T03:57:33;8.40;99.90
52187;DHT22;38161;53.020;6.598;2024-02-21T03:59:58;8.40;99.90
52187;DHT22;38161;53.020;6.598;2024-02-21T04:02:24;8.40;99.90
52187;DHT22;38161;53.020;6.598;2024-02-21T04:04:50;8.40;99.90
52187;DHT22;38161;53.020;6.598;2024-02-21T04:07:16;8.40;99.90
52187;DHT22;38161;53.020;6.598;2024-02-21T04:09:42;8.40;99.90
52187;DHT22;38161;53.020;6.598;2024-02-21T04:12:08;8.40;99.90
52187;DHT22;38161;53.020;6.598;2024-02-21T04:14:35;8.40;99.90
52187;DHT22;38161;53.020;6.598;2024-02-21T04:17:01;8.40;99.90
52187;DHT22;38161;53.020;6.598;2024-02-21T04:19:27;8.40;99.90
52187;DHT22;38161;53.020;6.598;2024-02-21T04:21:53;8.40;99.90
52187;DHT22;38161;53.020;6.598;2024-02-21T04:24:18;8.40;99.90
52187;DHT22;38161;53.020;6.598;2024-02-21T04:26:44;8.40;99.90
52187;DHT22;38161;53.020;6.598;2024-02-21T04:29:10;8.40;99.90
52187;DHT22;38161;53.020;6.598;2024-02-21T04:31:36;8.40;99.90
52187;DHT22;38161;53.020;6.598;2024-02-21T04:34:02;8.40;99.90
52187;DHT22;38161;53.020;6.598;2024-02-21T04:36:28;8.40;99.90
52187;DHT22;38161;53.020;6.598;2024-02-21T04:38:54;8.40;99.90
52187;DHT22;38161;53.020;6.598;2024-02-21T04:41:20;8.40;99.90
52187;DHT22;38161;53.020;6.598;2024-02-21T04:43:46;8.40;99.90
52187;DHT22;38161;53.020;6.598;2024-02-21T04:46:13;8.40;99.90
52187;DHT22;38161;53.020;6.598;2024-02-21T04:48:39;8.40;99.90
52187;DHT22;38161;53.020;6.598;2024-02-21T04:51:05;8.40;99.90
52187;DHT22;38161;53.020;6.598;2024-02-21T04:53:31;8.40;99.90
52187;DHT22;38161;53.020;6.598;2024-02-21T04:55:56;8.40;99.90
52187;DHT22;38161;53.020;6.598;2024-02-21T04:58:22;8.40;99.90
52187;DHT22;38161;53.020;6.598;2024-02-21T05:00:48;8.40;99.90
52187;DHT22;38161;53.020;6.598;2024-02-21T05:03:14;8.40;99.90
52187;DHT22;38161;53.020;6.598;2024-02-21T05:05:40;8.40;99.90
52187;DHT22;38161;53.020;6.598;2024-02-21T05:08:05;8.40;99.90
52187;DHT22;38161;53.020;6.598;2024-02-21T05:10:31;8.40;99.90
52187;DHT22;38161;53.020;6.598;2024-02-21T05:12:57;8.40;99.90
52187;DHT22;38161;53.020;6.598;2024-02-21T05:15:24;8.40;99.90
52187;DHT22;38161;53.020;6.598;2024-02-21T05:17:49;7.60;99.90
52187;DHT22;38161;53.020;6.598;2024-02-21T05:20:15;8.40;99.90
52187;DHT22;38161;53.020;6.598;2024-02-21T05:22:41;8.40;99.90
52187;DHT22;38161;53.020;6.598;2024-02-21T05:25:07;8.40;99.90
52187;DHT22;38161;53.020;6.598;2024-02-21T05:27:33;8.40;99.90
52187;DHT22;38161;53.020;6.598;2024-02-21T05:30:00;8.40;99.90
52187;DHT22;38161;53.020;6.598;2024-02-21T05:32:26;8.40;99.90
52187;DHT22;38161;53.020;6.598;2024-02-21T05:34:52;8.40;99.90
52187;DHT22;38161;53.020;6.598;2024-02-21T05:37:18;8.40;99.90
52187;DHT22;38161;53.020;6.598;2024-02-21T05:39:44;8.40;99.90
52187;DHT22;38161;53.020;6.598;2024-02-21T05:42:09;8.30;99.90
52187;DHT22;38161;53.020;6.598;2024-02-21T05:44:35;8.40;99.90
52187;DHT22;38161;53.020;6.598;2024-02-21T05:47:01;8.40;99.90
52187;DHT22;38161;53.020;6.598;2024-02-21T05:49:26;8.40;99.90
52187;DHT22;38161;53.020;6.598;2024-02-21T05:51:52;8.40;99.90
52187;DHT22;38161;53.020;6.598;2024-02-21T05:54:18;8.40;99.90
52187;DHT22;38161;53.020;6.598;2024-02-21T05:56:45;8.40;99.90
52187;DHT22;38161;53.020;6.598;2024-02-21T05:59:11;8.30;99.90
52187;DHT22;38161;53.020;6.598;2024-02-21T06:01:37;8.40;99.90
52187;DHT22;38161;53.020;6.598;2024-02-21T06:04:03;8.40;99.90
52187;DHT22;38161;53.020;6.598;2024-02-21T06:06:30;8.30;99.90
52187;DHT22;38161;53.020;6.598;2024-02-21T06:08:56;8.40;99.90
52187;DHT22;38161;53.020;6.598;2024-02-21T06:11:22;8.40;99.90
52187;DHT22;38161;53.020;6.598;2024-02-21T06:13:48;8.40;99.90
52187;DHT22;38161;53.020;6.598;2024-02-21T06:16:14;8.40;99.90
52187;DHT22;38161;53.020;6.598;2024-02-21T06:18:40;8.40;99.90
52187;DHT22;38161;53.020;6.598;2024-02-21T06:21:06;8.40;99.90
52187;DHT22;38161;53.020;6.598;2024-02-21T06:23:32;8.40;99.90
52187;DHT22;38161;53.020;6.598;2024-02-21T06:25:57;8.40;99.90
52187;DHT22;38161;53.020;6.598;2024-02-21T06:28:23;8.40;99.90
52187;DHT22;38161;53.020;6.598;2024-02-21T06:30:49;8.40;99.90
52187;DHT22;38161;53.020;6.598;2024-02-21T06:33:15;8.40;99.90
52187;DHT22;38161;53.020;6.598;2024-02-21T06:35:40;8.40;99.90
52187;DHT22;38161;53.020;6.598;2024-02-21T06:38:08;8.30;99.90
52187;DHT22;38161;53.020;6.598;2024-02-21T06:40:34;8.30;99.90
52187;DHT22;38161;53.020;6.598;2024-02-21T06:43:04;8.40;99.90
52187;DHT22;38161;53.020;6.598;2024-02-21T06:45:30;8.40;99.90
52187;DHT22;38161;53.020;6.598;2024-02-21T06:47:56;8.40;99.90
52187;DHT22;38161;53.020;6.598;2024-02-21T06:50:22;8.40;99.90
52187;DHT22;38161;53.020;6.598;2024-02-21T06:52:48;8.40;99.90
52187;DHT22;38161;53.020;6.598;2024-02-21T06:55:14;8.40;99.90
52187;DHT22;38161;53.020;6.598;2024-02-21T06:57:40;8.40;99.90
52187;DHT22;38161;53.020;6.598;2024-02-21T07:00:06;8.40;99.90
52187;DHT22;38161;53.020;6.598;2024-02-21T07:02:34;8.40;99.90
52187;DHT22;38161;53.020;6.598;2024-02-21T07:04:59;8.40;99.90
52187;DHT22;38161;53.020;6.598;2024-02-21T07:07:25;8.40;99.90
52187;DHT22;38161;53.020;6.598;2024-02-21T07:09:51;8.40;99.90
52187;DHT22;38161;53.020;6.598;2024-02-21T07:12:18;8.40;99.90
52187;DHT22;38161;53.020;6.598;2024-02-21T07:14:45;8.40;99.90
52187;DHT22;38161;53.020;6.598;2024-02-21T07:17:10;8.40;99.90
52187;DHT22;38161;53.020;6.598;2024-02-21T07:19:36;8.40;99.90
52187;DHT22;38161;53.020;6.598;2024-02-21T07:22:02;8.40;99.90
52187;DHT22;38161;53.020;6.598;2024-02-21T07:24:28;8.40;99.90
52187;DHT22;38161;53.020;6.598;2024-02-21T07:26:54;8.40;99.90
52187;DHT22;38161;53.020;6.598;2024-02-21T07:29:21;8.40;99.90
52187;DHT22;38161;53.020;6.598;2024-02-21T07:31:48;8.40;99.90
52187;DHT22;38161;53.020;6.598;2024-02-21T07:34:14;8.40;99.90
52187;DHT22;38161;53.020;6.598;2024-02-21T07:36:40;8.40;99.90
52187;DHT22;38161;53.020;6.598;2024-02-21T07:39:08;8.40;99.90
52187;DHT22;38161;53.020;6.598;2024-02-21T07:41:33;8.40;99.90
52187;DHT22;38161;53.020;6.598;2024-02-21T07:44:00;8.40;99.90
52187;DHT22;38161;53.020;6.598;2024-02-21T07:46:26;8.40;99.90
52187;DHT22;38161;53.020;6.598;2024-02-21T07:48:51;8.40;99.90
52187;DHT22;38161;53.020;6.598;2024-02-21T07:51:17;8.40;99.90
52187;DHT22;38161;53.020;6.598;2024-02-21T07:53:44;8.40;99.90
52187;DHT22;38161;53.020;6.598;2024-02-21T07:56:14;8.40;99.90
52187;DHT22;38161;53.020;6.598;2024-02-21T07:58:43;8.40;99.90
52187;DHT22;38161;53.020;6.598;2024-02-21T08:01:10;8.40;99.90
52187;DHT22;38161;53.020;6.598;2024-02-21T08:03:36;8.40;99.90
52187;DHT22;38161;53.020;6.598;2024-02-21T08:06:03;8.40;99.90
52187;DHT22;38161;53.020;6.598;2024-02-21T08:08:29;8.40;99.90
52187;DHT22;38161;53.020;6.598;2024-02-21T08:10:55;8.50;99.90
52187;DHT22;38161;53.020;6.598;2024-02-21T08:13:21;8.40;99.90
52187;DHT22;38161;53.020;6.598;2024-02-21T08:15:47;8.40;99.90
52187;DHT22;38161;53.020;6.598;2024-02-21T08:18:12;8.40;99.90
52187;DHT22;38161;53.020;6.598;2024-02-21T08:20:38;8.40;99.90
52187;DHT22;38161;53.020;6.598;2024-02-21T08:23:04;8.40;99.90
52187;DHT22;38161;53.020;6.598;2024-02-21T08:25:29;8.40;99.90
52187;DHT22;38161;53.020;6.598;2024-02-21T08:27:58;8.40;99.90
52187;DHT22;38161;53.020;6.598;2024-02-21T08:30:24;8.40;99.90
52187;DHT22;38161;53.020;6.598;2024-02-21T08:32:50;8.40;99.90
52187;DHT22;38161;53.020;6.598;2024-02-21T08:35:16;8.40;99.90
52187;DHT22;38161;53.020;6.598;2024-02-21T08:37:44;8.40;99.90
52187;DHT22;38161;53.020;6.598;2024-02-21T08:40:12;8.40;99.90
52187;DHT22;38161;53.020;6.598;2024-02-21T08:42:41;8.40;99.90
52187;DHT22;38161;53.020;6.598;2024-02-21T08:45:08;8.40;99.90
52187;DHT22;38161;53.020;6.598;2024-02-21T08:47:33;9.70;99.90
52187;DHT22;38161;53.020;6.598;2024-02-21T08:50:01;8.40;99.90
52187;DHT22;38161;53.020;6.598;2024-02-21T08:52:27;8.40;99.90
52187;DHT22;38161;53.020;6.598;2024-02-21T08:54:53;8.40;99.90
52187;DHT22;38161;53.020;6.598;2024-02-21T08:57:19;8.50;99.90
52187;DHT22;38161;53.020;6.598;2024-02-21T08:59:46;8.50;99.90
52187;DHT22;38161;53.020;6.598;2024-02-21T09:02:13;8.40;99.90
52187;DHT22;38161;53.020;6.598;2024-02-21T09:04:38;8.40;99.90
52187;DHT22;38161;53.020;6.598;2024-02-21T09:07:04;8.40;99.90
52187;DHT22;38161;53.020;6.598;2024-02-21T09:09:30;8.40;99.90
52187;DHT22;38161;53.020;6.598;2024-02-21T09:11:58;8.40;99.90
52187;DHT22;38161;53.020;6.598;2024-02-21T09:14:31;8.50;99.90
52187;DHT22;38161;53.020;6.598;2024-02-21T09:16:57;8.40;99.90
52187;DHT22;38161;53.020;6.598;2024-02-21T09:19:23;8.50;99.90
52187;DHT22;38161;53.020;6.598;2024-02-21T09:21:49;8.50;99.90
52187;DHT22;38161;53.020;6.598;2024-02-21T09:24:15;8.50;99.90
52187;DHT22;38161;53.020;6.598;2024-02-21T09:26:41;8.50;99.90
52187;DHT22;38161;53.020;6.598;2024-02-21T09:29:06;8.50;99.90
52187;DHT22;38161;53.020;6.598;2024-02-21T09:31:33;8.50;99.90
52187;DHT22;38161;53.020;6.598;2024-02-21T09:33:59;8.40;99.90
52187;DHT22;38161;53.020;6.598;2024-02-21T09:36:24;8.50;99.90
52187;DHT22;38161;53.020;6.598;2024-02-21T09:38:50;8.50;99.90
52187;DHT22;38161;53.020;6.598;2024-02-21T09:41:18;8.50;99.90
52187;DHT22;38161;53.020;6.598;2024-02-21T09:43:44;8.40;99.90
52187;DHT22;38161;53.020;6.598;2024-02-21T09:46:18;8.40;99.90
52187;DHT22;38161;53.020;6.598;2024-02-21T09:51:36;8.50;99.90
52187;DHT22;38161;53.020;6.598;2024-02-21T09:54:04;8.50;99.90
52187;DHT22;38161;53.020;6.598;2024-02-21T09:56:30;8.40;99.90
52187;DHT22;38161;53.020;6.598;2024-02-21T09:58:56;8.50;99.90
52187;DHT22;38161;53.020;6.598;2024-02-21T10:01:23;8.50;99.90
52187;DHT22;38161;53.020;6.598;2024-02-21T10:03:48;8.50;99.90
52187;DHT22;38161;53.020;6.598;2024-02-21T10:06:15;8.50;99.90
52187;DHT22;38161;53.020;6.598;2024-02-21T10:08:40;8.50;99.90
52187;DHT22;38161;53.020;6.598;2024-02-21T10:11:06;8.50;99.90
52187;DHT22;38161;53.020;6.598;2024-02-21T10:13:34;8.60;99.90
52187;DHT22;38161;53.020;6.598;2024-02-21T10:16:07;8.60;99.90
52187;DHT22;38161;53.020;6.598;2024-02-21T10:18:34;8.60;99.90
52187;DHT22;38161;53.020;6.598;2024-02-21T10:21:05;8.60;99.90
52187;DHT22;38161;53.020;6.598;2024-02-21T10:23:45;8.70;99.90
52187;DHT22;38161;53.020;6.598;2024-02-21T10:26:11;8.70;99.90
52187;DHT22;38161;53.020;6.598;2024-02-21T10:28:37;8.80;99.90
52187;DHT22;38161;53.020;6.598;2024-02-21T10:31:08;8.80;99.90
52187;DHT22;38161;53.020;6.598;2024-02-21T10:33:34;8.90;99.90
52187;DHT22;38161;53.020;6.598;2024-02-21T10:36:10;8.90;99.90
52187;DHT22;38161;53.020;6.598;2024-02-21T10:38:39;8.90;99.90
52187;DHT22;38161;53.020;6.598;2024-02-21T10:41:06;8.90;99.90
52187;DHT22;38161;53.020;6.598;2024-02-21T10:43:39;8.90;99.90
52187;DHT22;38161;53.020;6.598;2024-02-21T10:46:06;8.90;99.90
52187;DHT22;38161;53.020;6.598;2024-02-21T10:48:43;9.00;99.90
52187;DHT22;38161;53.020;6.598;2024-02-21T10:51:16;9.00;99.90
52187;DHT22;38161;53.020;6.598;2024-02-21T10:56:31;9.00;99.90
52187;DHT22;38161;53.020;6.598;2024-02-21T10:59:09;9.10;99.90
52187;DHT22;38161;53.020;6.598;2024-02-21T11:01:36;9.10;99.90
52187;DHT22;38161;53.020;6.598;2024-02-21T11:04:03;9.10;99.90
52187;DHT22;38161;53.020;6.598;2024-02-21T11:06:29;9.20;99.90
52187;DHT22;38161;53.020;6.598;2024-02-21T11:09:05;9.20;99.90
52187;DHT22;38161;53.020;6.598;2024-02-21T11:11:42;9.30;99.90
52187;DHT22;38161;53.020;6.598;2024-02-21T11:16:41;9.30;99.90
52187;DHT22;38161;53.020;6.598;2024-02-21T11:19:25;9.30;99.90
52187;DHT22;38161;53.020;6.598;2024-02-21T11:21:51;9.30;99.90
52187;DHT22;38161;53.020;6.598;2024-02-21T11:26:52;9.20;99.90
52187;DHT22;38161;53.020;6.598;2024-02-21T11:29:24;9.20;99.90
52187;DHT22;38161;53.020;6.598;2024-02-21T11:31:50;9.20;99.90
52187;DHT22;38161;53.020;6.598;2024-02-21T11:34:20;9.20;99.90
52187;DHT22;38161;53.020;6.598;2024-02-21T11:36:49;9.10;99.90
52187;DHT22;38161;53.020;6.598;2024-02-21T11:39:23;9.20;99.90
52187;DHT22;38161;53.020;6.598;2024-02-21T11:42:01;9.20;99.90
52187;DHT22;38161;53.020;6.598;2024-02-21T11:44:27;9.10;99.90
52187;DHT22;38161;53.020;6.598;2024-02-21T11:46:53;9.20;99.90
52187;DHT22;38161;53.020;6.598;2024-02-21T11:49:19;9.20;99.90
52187;DHT22;38161;53.020;6.598;2024-02-21T11:51:44;9.20;99.90
52187;DHT22;38161;53.020;6.598;2024-02-21T11:54:11;9.20;99.90
52187;DHT22;38161;53.020;6.598;2024-02-21T11:56:38;9.20;99.90
52187;DHT22;38161;53.020;6.598;2024-02-21T11:59:04;9.20;99.90
52187;DHT22;38161;53.020;6.598;2024-02-21T12:01:32;9.20;99.90
52187;DHT22;38161;53.020;6.598;2024-02-21T12:03:57;9.20;99.90
52187;DHT22;38161;53.020;6.598;2024-02-21T12:06:23;9.20;99.90
52187;DHT22;38161;53.020;6.598;2024-02-21T12:08:49;9.20;99.90
52187;DHT22;38161;53.020;6.598;2024-02-21T12:11:19;9.20;99.90
52187;DHT22;38161;53.020;6.598;2024-02-21T12:13:46;9.20;99.90
52187;DHT22;38161;53.020;6.598;2024-02-21T12:16:15;9.20;99.90
52187;DHT22;38161;53.020;6.598;2024-02-21T12:18:43;9.20;99.90
52187;DHT22;38161;53.020;6.598;2024-02-21T12:21:09;9.10;99.90
52187;DHT22;38161;53.020;6.598;2024-02-21T12:23:38;9.10;99.90
52187;DHT22;38161;53.020;6.598;2024-02-21T12:26:04;9.20;99.90
52187;DHT22;38161;53.020;6.598;2024-02-21T12:28:30;9.20;99.90
52187;DHT22;38161;53.020;6.598;2024-02-21T12:30:56;9.20;99.90
52187;DHT22;38161;53.020;6.598;2024-02-21T12:33:22;9.20;99.90
52187;DHT22;38161;53.020;6.598;2024-02-21T12:35:47;9.20;99.90
52187;DHT22;38161;53.020;6.598;2024-02-21T12:38:14;9.20;99.90
52187;DHT22;38161;53.020;6.598;2024-02-21T12:40:40;9.20;99.90
52187;DHT22;38161;53.020;6.598;2024-02-21T12:43:06;9.30;99.90
52187;DHT22;38161;53.020;6.598;2024-02-21T12:45:32;9.20;99.90
52187;DHT22;38161;53.020;6.598;2024-02-21T12:47:59;9.20;99.90
52187;DHT22;38161;53.020;6.598;2024-02-21T12:50:25;9.20;99.90
52187;DHT22;38161;53.020;6.598;2024-02-21T12:52:51;9.30;99.90
52187;DHT22;38161;53.020;6.598;2024-02-21T12:55:17;9.20;99.90
52187;DHT22;38161;53.020;6.598;2024-02-21T12:57:43;9.30;99.90
52187;DHT22;38161;53.020;6.598;2024-02-21T13:00:09;9.20;99.90
52187;DHT22;38161;53.020;6.598;2024-02-21T13:02:36;9.20;99.90
52187;DHT22;38161;53.020;6.598;2024-02-21T13:05:03;9.20;99.90
52187;DHT22;38161;53.020;6.598;2024-02-21T13:07:29;9.20;99.90
52187;DHT22;38161;53.020;6.598;2024-02-21T13:09:56;9.20;99.90
52187;DHT22;38161;53.020;6.598;2024-02-21T13:12:22;9.20;99.90
52187;DHT22;38161;53.020;6.598;2024-02-21T13:14:48;9.20;99.90
52187;DHT22;38161;53.020;6.598;2024-02-21T13:17:14;9.30;99.90
52187;DHT22;38161;53.020;6.598;2024-02-21T13:19:42;9.30;99.90
52187;DHT22;38161;53.020;6.598;2024-02-21T13:22:07;9.40;99.90
52187;DHT22;38161;53.020;6.598;2024-02-21T13:24:33;9.30;99.90
52187;DHT22;38161;53.020;6.598;2024-02-21T13:26:59;9.40;99.90
52187;DHT22;38161;53.020;6.598;2024-02-21T13:29:25;9.40;99.90
52187;DHT22;38161;53.020;6.598;2024-02-21T13:31:51;9.40;99.90
52187;DHT22;38161;53.020;6.598;2024-02-21T13:34:16;9.40;99.90
52187;DHT22;38161;53.020;6.598;2024-02-21T13:36:43;9.50;99.90
52187;DHT22;38161;53.020;6.598;2024-02-21T13:39:08;9.50;99.90
52187;DHT22;38161;53.020;6.598;2024-02-21T13:41:38;9.50;99.90
52187;DHT22;38161;53.020;6.598;2024-02-21T13:44:04;9.50;99.90
52187;DHT22;38161;53.020;6.598;2024-02-21T13:46:29;9.50;99.90
52187;DHT22;38161;53.020;6.598;2024-02-21T13:49:04;9.50;99.90
52187;DHT22;38161;53.020;6.598;2024-02-21T13:51:30;9.50;99.90
52187;DHT22;38161;53.020;6.598;2024-02-21T13:53:56;9.50;99.90
52187;DHT22;38161;53.020;6.598;2024-02-21T13:56:22;9.50;99.90
52187;DHT22;38161;53.020;6.598;2024-02-21T13:58:48;9.50;99.90
52187;DHT22;38161;53.020;6.598;2024-02-21T14:01:13;9.50;99.90
52187;DHT22;38161;53.020;6.598;2024-02-21T14:03:39;9.40;99.90
52187;DHT22;38161;53.020;6.598;2024-02-21T14:06:05;9.40;99.90
52187;DHT22;38161;53.020;6.598;2024-02-21T14:08:31;9.40;99.90
52187;DHT22;38161;53.020;6.598;2024-02-21T14:10:57;9.40;99.90
52187;DHT22;38161;53.020;6.598;2024-02-21T14:13:24;9.30;99.90
52187;DHT22;38161;53.020;6.598;2024-02-21T14:15:50;9.30;99.90
52187;DHT22;38161;53.020;6.598;2024-02-21T14:18:16;9.30;99.90
52187;DHT22;38161;53.020;6.598;2024-02-21T14:20:43;9.30;99.90
52187;DHT22;38161;53.020;6.598;2024-02-21T14:23:09;9.30;99.90
52187;DHT22;38161;53.020;6.598;2024-02-21T14:25:34;9.20;99.90
52187;DHT22;38161;53.020;6.598;2024-02-21T14:28:00;9.30;99.90
52187;DHT22;38161;53.020;6.598;2024-02-21T14:30:26;9.20;99.90
52187;DHT22;38161;53.020;6.598;2024-02-21T14:32:52;9.20;99.90
52187;DHT22;38161;53.020;6.598;2024-02-21T14:35:18;9.20;99.90
52187;DHT22;38161;53.020;6.598;2024-02-21T14:37:44;9.20;99.90
52187;DHT22;38161;53.020;6.598;2024-02-21T14:40:11;9.20;99.90
52187;DHT22;38161;53.020;6.598;2024-02-21T14:42:37;9.20;99.90
52187;DHT22;38161;53.020;6.598;2024-02-21T14:45:04;9.20;99.90
52187;DHT22;38161;53.020;6.598;2024-02-21T14:47:33;9.10;99.90
52187;DHT22;38161;53.020;6.598;2024-02-21T14:49:59;9.10;99.90
52187;DHT22;38161;53.020;6.598;2024-02-21T14:52:25;9.10;99.90
52187;DHT22;38161;53.020;6.598;2024-02-21T14:54:53;9.10;99.90
52187;DHT22;38161;53.020;6.598;2024-02-21T14:57:19;9.10;99.90
52187;DHT22;38161;53.020;6.598;2024-02-21T14:59:46;9.10;99.90
52187;DHT22;38161;53.020;6.598;2024-02-21T15:02:11;9.10;99.90
52187;DHT22;38161;53.020;6.598;2024-02-21T15:04:37;9.10;99.90
52187;DHT22;38161;53.020;6.598;2024-02-21T15:07:03;9.10;99.90
52187;DHT22;38161;53.020;6.598;2024-02-21T15:09:29;9.10;99.90
52187;DHT22;38161;53.020;6.598;2024-02-21T15:11:54;9.10;99.90
52187;DHT22;38161;53.020;6.598;2024-02-21T15:14:20;9.10;99.90
52187;DHT22;38161;53.020;6.598;2024-02-21T15:16:46;9.10;99.90
52187;DHT22;38161;53.020;6.598;2024-02-21T15:19:12;9.10;99.90
52187;DHT22;38161;53.020;6.598;2024-02-21T15:21:37;9.10;99.90
52187;DHT22;38161;53.020;6.598;2024-02-21T15:24:03;9.00;99.90
52187;DHT22;38161;53.020;6.598;2024-02-21T15:26:29;9.10;99.90
52187;DHT22;38161;53.020;6.598;2024-02-21T15:28:56;9.10;99.90
52187;DHT22;38161;53.020;6.598;2024-02-21T15:31:22;9.00;99.90
52187;DHT22;38161;53.020;6.598;2024-02-21T15:33:52;9.00;99.90
52187;DHT22;38161;53.020;6.598;2024-02-21T15:36:17;9.00;99.90
52187;DHT22;38161;53.020;6.598;2024-02-21T15:38:45;9.00;99.90
52187;DHT22;38161;53.020;6.598;2024-02-21T15:41:14;9.00;99.90
52187;DHT22;38161;53.020;6.598;2024-02-21T15:43:40;9.00;99.90
52187;DHT22;38161;53.020;6.598;2024-02-21T15:46:06;9.00;99.90
52187;DHT22;38161;53.020;6.598;2024-02-21T15:48:31;9.00;99.90
52187;DHT22;38161;53.020;6.598;2024-02-21T15:51:00;9.00;99.90